sensor_id;sensor_type;location;lat;lon;timestamp;P1;durP1;ratioP1;P2;durP2;ratioP2
61897;SDS011;47850;50.274;18.908;2022-08-19T00:00:36;11.20;;;7.60;;
61897;SDS011;47850;50.274;18.908;2022-08-19T00:03:03;11.70;;;8.10;;
61897;SDS011;47850;50.274;18.908;2022-08-19T00:05:30;11.00;;;8.00;;
61897;SDS011;47850;50.274;18.908;2022-08-19T00:07:57;13.00;;;7.80;;
61897;SDS011;47850;50.274;18.908;2022-08-19T00:10:24;14.80;;;7.70;;
61897;SDS011;47850;50.274;18.908;2022-08-19T00:12:51;12.00;;;7.40;;
61897;SDS011;47850;50.274;18.908;2022-08-19T00:15:20;11.90;;;7.30;;
61897;SDS011;47850;50.274;18.908;2022-08-19T00:17:47;12.60;;;7.20;;
61897;SDS011;47850;50.274;18.908;2022-08-19T00:20:16;11.40;;;8.30;;
61897;SDS011;47850;50.274;18.908;2022-08-19T00:22:46;11.40;;;7.40;;
61897;SDS011;47850;50.274;18.908;2022-08-19T00:25:14;15.70;;;8.20;;
61897;SDS011;47850;50.274;18.908;2022-08-19T00:27:41;11.70;;;7.90;;
61897;SDS011;47850;50.274;18.908;2022-08-19T00:30:11;12.80;;;8.00;;
61897;SDS011;47850;50.274;18.908;2022-08-19T00:32:38;11.50;;;7.60;;
61897;SDS011;47850;50.274;18.908;2022-08-19T00:35:05;11.50;;;7.90;;
61897;SDS011;47850;50.274;18.908;2022-08-19T00:37:32;14.10;;;8.20;;
61897;SDS011;47850;50.274;18.908;2022-08-19T00:40:01;16.20;;;8.10;;
61897;SDS011;47850;50.274;18.908;2022-08-19T00:44:57;12.60;;;8.00;;
61897;SDS011;47850;50.274;18.908;2022-08-19T00:47:24;13.50;;;8.40;;
61897;SDS011;47850;50.274;18.908;2022-08-19T00:49:52;11.20;;;7.90;;
61897;SDS011;47850;50.274;18.908;2022-08-19T00:52:42;10.20;;;7.70;;
61897;SDS011;47850;50.274;18.908;2022-08-19T00:55:16;13.30;;;8.40;;
61897;SDS011;47850;50.274;18.908;2022-08-19T00:57:55;14.00;;;8.70;;
61897;SDS011;47850;50.274;18.908;2022-08-19T01:00:31;13.20;;;8.30;;
61897;SDS011;47850;50.274;18.908;2022-08-19T01:03:03;12.80;;;7.80;;
61897;SDS011;47850;50.274;18.908;2022-08-19T01:05:36;12.80;;;8.80;;
61897;SDS011;47850;50.274;18.908;2022-08-19T01:08:05;10.90;;;8.40;;
61897;SDS011;47850;50.274;18.908;2022-08-19T01:10:37;13.20;;;8.20;;
61897;SDS011;47850;50.274;18.908;2022-08-19T01:13:07;13.00;;;8.40;;
61897;SDS011;47850;50.274;18.908;2022-08-19T01:15:38;9.30;;;8.10;;
61897;SDS011;47850;50.274;18.908;2022-08-19T01:18:13;14.10;;;8.90;;
61897;SDS011;47850;50.274;18.908;2022-08-19T01:20:41;11.90;;;8.80;;
61897;SDS011;47850;50.274;18.908;2022-08-19T01:23:08;10.80;;;8.00;;
61897;SDS011;47850;50.274;18.908;2022-08-19T01:25:39;14.40;;;9.20;;
61897;SDS011;47850;50.274;18.908;2022-08-19T01:28:07;12.40;;;8.60;;
61897;SDS011;47850;50.274;18.908;2022-08-19T01:30:35;8.70;;;7.60;;
61897;SDS011;47850;50.274;18.908;2022-08-19T01:33:02;13.40;;;8.80;;
61897;SDS011;47850;50.274;18.908;2022-08-19T01:35:31;13.60;;;8.80;;
61897;SDS011;47850;50.274;18.908;2022-08-19T01:38:00;17.90;;;8.30;;
61897;SDS011;47850;50.274;18.908;2022-08-19T01:40:34;12.50;;;8.60;;
61897;SDS011;47850;50.274;18.908;2022-08-19T01:43:04;15.60;;;9.10;;
61897;SDS011;47850;50.274;18.908;2022-08-19T01:45:32;12.70;;;8.90;;
61897;SDS011;47850;50.274;18.908;2022-08-19T01:48:00;13.90;;;9.00;;
61897;SDS011;47850;50.274;18.908;2022-08-19T01:50:27;16.20;;;9.00;;
61897;SDS011;47850;50.274;18.908;2022-08-19T01:52:54;12.20;;;8.90;;
61897;SDS011;47850;50.274;18.908;2022-08-19T01:55:20;11.50;;;9.40;;
61897;SDS011;47850;50.274;18.908;2022-08-19T01:57:50;15.80;;;10.20;;
61897;SDS011;47850;50.274;18.908;2022-08-19T02:00:26;13.80;;;9.10;;
61897;SDS011;47850;50.274;18.908;2022-08-19T02:02:55;15.30;;;8.70;;
61897;SDS011;47850;50.274;18.908;2022-08-19T02:05:22;11.60;;;9.30;;
61897;SDS011;47850;50.274;18.908;2022-08-19T02:07:52;10.90;;;9.20;;
61897;SDS011;47850;50.274;18.908;2022-08-19T02:10:20;12.20;;;9.40;;
61897;SDS011;47850;50.274;18.908;2022-08-19T02:12:48;14.40;;;8.90;;
61897;SDS011;47850;50.274;18.908;2022-08-19T02:15:16;12.00;;;9.10;;
61897;SDS011;47850;50.274;18.908;2022-08-19T02:17:46;14.90;;;9.50;;
61897;SDS011;47850;50.274;18.908;2022-08-19T02:20:13;14.30;;;9.30;;
61897;SDS011;47850;50.274;18.908;2022-08-19T02:22:40;14.90;;;9.40;;
61897;SDS011;47850;50.274;18.908;2022-08-19T02:25:12;12.90;;;8.80;;
61897;SDS011;47850;50.274;18.908;2022-08-19T02:27:40;13.90;;;9.70;;
61897;SDS011;47850;50.274;18.908;2022-08-19T02:30:10;13.00;;;9.60;;
61897;SDS011;47850;50.274;18.908;2022-08-19T02:32:40;12.00;;;8.80;;
61897;SDS011;47850;50.274;18.908;2022-08-19T02:35:07;14.40;;;10.00;;
61897;SDS011;47850;50.274;18.908;2022-08-19T02:37:35;10.50;;;9.00;;
61897;SDS011;47850;50.274;18.908;2022-08-19T02:40:20;13.10;;;9.50;;
61897;SDS011;47850;50.274;18.908;2022-08-19T02:42:47;13.70;;;9.40;;
61897;SDS011;47850;50.274;18.908;2022-08-19T02:45:14;12.10;;;9.30;;
61897;SDS011;47850;50.274;18.908;2022-08-19T02:47:41;12.50;;;9.10;;
61897;SDS011;47850;50.274;18.908;2022-08-19T02:50:09;11.90;;;9.40;;
61897;SDS011;47850;50.274;18.908;2022-08-19T02:52:36;16.50;;;9.50;;
61897;SDS011;47850;50.274;18.908;2022-08-19T02:55:02;11.60;;;9.40;;
61897;SDS011;47850;50.274;18.908;2022-08-19T02:57:30;13.90;;;10.00;;
61897;SDS011;47850;50.274;18.908;2022-08-19T02:59:58;14.70;;;9.40;;
61897;SDS011;47850;50.274;18.908;2022-08-19T03:02:27;14.00;;;9.60;;
61897;SDS011;47850;50.274;18.908;2022-08-19T03:04:54;13.90;;;9.40;;
61897;SDS011;47850;50.274;18.908;2022-08-19T03:07:20;14.40;;;9.80;;
61897;SDS011;47850;50.274;18.908;2022-08-19T03:09:47;12.00;;;9.30;;
61897;SDS011;47850;50.274;18.908;2022-08-19T03:12:13;15.80;;;9.90;;
61897;SDS011;47850;50.274;18.908;2022-08-19T03:14:40;16.90;;;9.80;;
61897;SDS011;47850;50.274;18.908;2022-08-19T03:17:07;16.60;;;9.50;;
61897;SDS011;47850;50.274;18.908;2022-08-19T03:19:34;12.00;;;9.40;;
61897;SDS011;47850;50.274;18.908;2022-08-19T03:22:01;13.30;;;9.70;;
61897;SDS011;47850;50.274;18.908;2022-08-19T03:24:28;15.40;;;9.70;;
61897;SDS011;47850;50.274;18.908;2022-08-19T03:26:55;13.40;;;9.40;;
61897;SDS011;47850;50.274;18.908;2022-08-19T03:29:26;15.50;;;10.60;;
61897;SDS011;47850;50.274;18.908;2022-08-19T03:31:53;12.60;;;10.10;;
61897;SDS011;47850;50.274;18.908;2022-08-19T03:34:22;13.60;;;9.90;;
61897;SDS011;47850;50.274;18.908;2022-08-19T03:36:55;15.50;;;9.90;;
61897;SDS011;47850;50.274;18.908;2022-08-19T03:39:25;14.00;;;9.50;;
61897;SDS011;47850;50.274;18.908;2022-08-19T03:41:53;13.60;;;9.30;;
61897;SDS011;47850;50.274;18.908;2022-08-19T03:44:23;16.70;;;9.30;;
61897;SDS011;47850;50.274;18.908;2022-08-19T03:46:50;13.60;;;9.30;;
61897;SDS011;47850;50.274;18.908;2022-08-19T03:49:22;15.50;;;10.60;;
61897;SDS011;47850;50.274;18.908;2022-08-19T03:51:50;15.00;;;10.00;;
61897;SDS011;47850;50.274;18.908;2022-08-19T03:54:19;15.00;;;9.80;;
61897;SDS011;47850;50.274;18.908;2022-08-19T03:56:49;14.60;;;9.70;;
61897;SDS011;47850;50.274;18.908;2022-08-19T03:59:20;13.10;;;9.80;;
61897;SDS011;47850;50.274;18.908;2022-08-19T04:01:52;13.60;;;9.40;;
61897;SDS011;47850;50.274;18.908;2022-08-19T04:04:23;16.20;;;10.20;;
61897;SDS011;47850;50.274;18.908;2022-08-19T04:06:50;14.90;;;9.60;;
61897;SDS011;47850;50.274;18.908;2022-08-19T04:09:18;11.90;;;9.10;;
61897;SDS011;47850;50.274;18.908;2022-08-19T04:11:47;12.00;;;9.00;;
61897;SDS011;47850;50.274;18.908;2022-08-19T04:14:17;11.40;;;9.00;;
61897;SDS011;47850;50.274;18.908;2022-08-19T04:16:47;18.00;;;8.80;;
61897;SDS011;47850;50.274;18.908;2022-08-19T04:19:15;12.00;;;9.20;;
61897;SDS011;47850;50.274;18.908;2022-08-19T04:21:44;11.60;;;9.10;;
61897;SDS011;47850;50.274;18.908;2022-08-19T04:24:13;19.10;;;10.00;;
61897;SDS011;47850;50.274;18.908;2022-08-19T04:26:40;13.90;;;8.50;;
61897;SDS011;47850;50.274;18.908;2022-08-19T04:29:08;13.70;;;9.20;;
61897;SDS011;47850;50.274;18.908;2022-08-19T04:31:37;14.20;;;8.80;;
61897;SDS011;47850;50.274;18.908;2022-08-19T04:34:05;16.00;;;8.80;;
61897;SDS011;47850;50.274;18.908;2022-08-19T04:36:35;14.60;;;8.60;;
61897;SDS011;47850;50.274;18.908;2022-08-19T04:39:05;10.80;;;8.70;;
61897;SDS011;47850;50.274;18.908;2022-08-19T04:41:34;13.00;;;9.00;;
61897;SDS011;47850;50.274;18.908;2022-08-19T04:44:20;13.50;;;9.00;;
61897;SDS011;47850;50.274;18.908;2022-08-19T04:46:48;11.00;;;8.70;;
61897;SDS011;47850;50.274;18.908;2022-08-19T04:49:16;12.50;;;9.20;;
61897;SDS011;47850;50.274;18.908;2022-08-19T04:51:45;10.40;;;8.20;;
61897;SDS011;47850;50.274;18.908;2022-08-19T04:54:16;10.80;;;7.90;;
61897;SDS011;47850;50.274;18.908;2022-08-19T04:56:43;12.90;;;8.40;;
61897;SDS011;47850;50.274;18.908;2022-08-19T04:59:10;10.20;;;7.90;;
61897;SDS011;47850;50.274;18.908;2022-08-19T05:01:37;10.80;;;7.90;;
61897;SDS011;47850;50.274;18.908;2022-08-19T05:04:04;14.00;;;8.40;;
61897;SDS011;47850;50.274;18.908;2022-08-19T05:06:32;9.90;;;8.20;;
61897;SDS011;47850;50.274;18.908;2022-08-19T05:09:01;12.20;;;8.30;;
61897;SDS011;47850;50.274;18.908;2022-08-19T05:11:33;13.10;;;8.30;;
61897;SDS011;47850;50.274;18.908;2022-08-19T05:16:28;13.30;;;7.80;;
61897;SDS011;47850;50.274;18.908;2022-08-19T05:18:55;15.80;;;8.20;;
61897;SDS011;47850;50.274;18.908;2022-08-19T05:21:41;11.20;;;8.30;;
61897;SDS011;47850;50.274;18.908;2022-08-19T05:24:27;10.70;;;8.10;;
61897;SDS011;47850;50.274;18.908;2022-08-19T05:26:55;10.80;;;8.10;;
61897;SDS011;47850;50.274;18.908;2022-08-19T05:29:24;12.10;;;8.50;;
61897;SDS011;47850;50.274;18.908;2022-08-19T05:31:53;14.70;;;8.30;;
61897;SDS011;47850;50.274;18.908;2022-08-19T05:34:22;13.90;;;8.40;;
61897;SDS011;47850;50.274;18.908;2022-08-19T05:36:54;11.20;;;8.10;;
61897;SDS011;47850;50.274;18.908;2022-08-19T05:39:24;13.80;;;8.10;;
61897;SDS011;47850;50.274;18.908;2022-08-19T05:41:58;15.30;;;8.70;;
61897;SDS011;47850;50.274;18.908;2022-08-19T05:44:28;16.60;;;9.00;;
61897;SDS011;47850;50.274;18.908;2022-08-19T05:47:00;16.80;;;8.90;;
61897;SDS011;47850;50.274;18.908;2022-08-19T05:49:31;26.50;;;9.30;;
61897;SDS011;47850;50.274;18.908;2022-08-19T05:52:01;14.80;;;8.90;;
61897;SDS011;47850;50.274;18.908;2022-08-19T05:54:30;13.60;;;8.30;;
61897;SDS011;47850;50.274;18.908;2022-08-19T05:56:57;23.90;;;8.40;;
61897;SDS011;47850;50.274;18.908;2022-08-19T05:59:24;14.00;;;8.30;;
61897;SDS011;47850;50.274;18.908;2022-08-19T06:01:52;16.70;;;10.00;;
61897;SDS011;47850;50.274;18.908;2022-08-19T06:04:21;12.90;;;7.80;;
61897;SDS011;47850;50.274;18.908;2022-08-19T06:06:49;12.50;;;7.30;;
61897;SDS011;47850;50.274;18.908;2022-08-19T06:09:18;10.90;;;7.90;;
61897;SDS011;47850;50.274;18.908;2022-08-19T06:11:46;20.20;;;7.90;;
61897;SDS011;47850;50.274;18.908;2022-08-19T06:16:44;14.20;;;6.60;;
61897;SDS011;47850;50.274;18.908;2022-08-19T06:19:12;21.50;;;7.70;;
61897;SDS011;47850;50.274;18.908;2022-08-19T06:21:43;8.90;;;7.00;;
61897;SDS011;47850;50.274;18.908;2022-08-19T06:24:13;16.80;;;8.20;;
61897;SDS011;47850;50.274;18.908;2022-08-19T06:26:42;13.00;;;7.90;;
61897;SDS011;47850;50.274;18.908;2022-08-19T06:29:11;10.20;;;7.60;;
61897;SDS011;47850;50.274;18.908;2022-08-19T06:31:43;13.60;;;7.70;;
61897;SDS011;47850;50.274;18.908;2022-08-19T06:34:12;14.10;;;7.20;;
61897;SDS011;47850;50.274;18.908;2022-08-19T06:36:41;13.50;;;8.10;;
61897;SDS011;47850;50.274;18.908;2022-08-19T06:39:12;22.90;;;7.70;;
61897;SDS011;47850;50.274;18.908;2022-08-19T06:41:41;15.30;;;7.80;;
61897;SDS011;47850;50.274;18.908;2022-08-19T06:44:14;15.50;;;8.30;;
61897;SDS011;47850;50.274;18.908;2022-08-19T06:46:42;19.30;;;8.10;;
61897;SDS011;47850;50.274;18.908;2022-08-19T06:49:10;12.80;;;7.90;;
61897;SDS011;47850;50.274;18.908;2022-08-19T06:51:41;15.30;;;8.10;;
61897;SDS011;47850;50.274;18.908;2022-08-19T06:54:09;22.80;;;8.10;;
61897;SDS011;47850;50.274;18.908;2022-08-19T06:56:37;11.00;;;7.60;;
61897;SDS011;47850;50.274;18.908;2022-08-19T06:59:05;22.30;;;8.40;;
61897;SDS011;47850;50.274;18.908;2022-08-19T07:01:38;17.60;;;7.60;;
61897;SDS011;47850;50.274;18.908;2022-08-19T07:04:07;15.40;;;7.90;;
61897;SDS011;47850;50.274;18.908;2022-08-19T07:06:35;14.90;;;8.20;;
61897;SDS011;47850;50.274;18.908;2022-08-19T07:09:04;17.60;;;8.00;;
61897;SDS011;47850;50.274;18.908;2022-08-19T07:11:32;15.60;;;7.70;;
61897;SDS011;47850;50.274;18.908;2022-08-19T07:13:59;11.90;;;7.70;;
61897;SDS011;47850;50.274;18.908;2022-08-19T07:16:27;15.40;;;7.90;;
61897;SDS011;47850;50.274;18.908;2022-08-19T07:18:54;20.80;;;7.30;;
61897;SDS011;47850;50.274;18.908;2022-08-19T07:21:24;16.10;;;9.90;;
61897;SDS011;47850;50.274;18.908;2022-08-19T07:23:57;15.20;;;7.70;;
61897;SDS011;47850;50.274;18.908;2022-08-19T07:26:26;24.10;;;8.00;;
61897;SDS011;47850;50.274;18.908;2022-08-19T07:28:54;13.30;;;7.90;;
61897;SDS011;47850;50.274;18.908;2022-08-19T07:31:22;12.30;;;7.90;;
61897;SDS011;47850;50.274;18.908;2022-08-19T07:33:52;14.70;;;8.20;;
61897;SDS011;47850;50.274;18.908;2022-08-19T07:36:25;16.30;;;8.20;;
61897;SDS011;47850;50.274;18.908;2022-08-19T07:38:59;15.60;;;8.30;;
61897;SDS011;47850;50.274;18.908;2022-08-19T07:41:29;16.00;;;8.50;;
61897;SDS011;47850;50.274;18.908;2022-08-19T07:43:57;19.50;;;8.80;;
61897;SDS011;47850;50.274;18.908;2022-08-19T07:46:28;27.50;;;8.50;;
61897;SDS011;47850;50.274;18.908;2022-08-19T07:48:57;19.20;;;8.10;;
61897;SDS011;47850;50.274;18.908;2022-08-19T07:51:24;16.60;;;8.70;;
61897;SDS011;47850;50.274;18.908;2022-08-19T07:53:51;13.90;;;8.40;;
61897;SDS011;47850;50.274;18.908;2022-08-19T07:56:19;24.40;;;8.70;;
61897;SDS011;47850;50.274;18.908;2022-08-19T07:58:47;45.30;;;9.10;;
61897;SDS011;47850;50.274;18.908;2022-08-19T08:01:17;31.10;;;9.10;;
61897;SDS011;47850;50.274;18.908;2022-08-19T08:03:48;11.90;;;7.80;;
61897;SDS011;47850;50.274;18.908;2022-08-19T08:06:35;17.10;;;8.30;;
61897;SDS011;47850;50.274;18.908;2022-08-19T08:09:26;16.10;;;8.70;;
61897;SDS011;47850;50.274;18.908;2022-08-19T08:12:00;26.50;;;8.40;;
61897;SDS011;47850;50.274;18.908;2022-08-19T08:14:32;15.70;;;8.30;;
61897;SDS011;47850;50.274;18.908;2022-08-19T08:17:02;13.20;;;8.10;;
61897;SDS011;47850;50.274;18.908;2022-08-19T08:19:30;16.40;;;8.50;;
61897;SDS011;47850;50.274;18.908;2022-08-19T08:21:58;17.00;;;8.20;;
61897;SDS011;47850;50.274;18.908;2022-08-19T08:24:26;14.00;;;8.00;;
61897;SDS011;47850;50.274;18.908;2022-08-19T08:26:55;16.00;;;9.00;;
61897;SDS011;47850;50.274;18.908;2022-08-19T08:29:22;15.20;;;8.20;;
61897;SDS011;47850;50.274;18.908;2022-08-19T08:31:49;11.20;;;7.80;;
61897;SDS011;47850;50.274;18.908;2022-08-19T08:34:15;11.90;;;8.00;;
61897;SDS011;47850;50.274;18.908;2022-08-19T08:36:44;17.40;;;8.40;;
61897;SDS011;47850;50.274;18.908;2022-08-19T08:39:12;14.20;;;9.20;;
61897;SDS011;47850;50.274;18.908;2022-08-19T08:44:47;13.40;;;7.80;;
61897;SDS011;47850;50.274;18.908;2022-08-19T08:47:23;14.60;;;7.90;;
61897;SDS011;47850;50.274;18.908;2022-08-19T08:50:00;13.80;;;7.90;;
61897;SDS011;47850;50.274;18.908;2022-08-19T08:52:31;17.50;;;7.70;;
61897;SDS011;47850;50.274;18.908;2022-08-19T08:55:10;15.80;;;8.40;;
61897;SDS011;47850;50.274;18.908;2022-08-19T09:00:22;13.30;;;7.50;;
61897;SDS011;47850;50.274;18.908;2022-08-19T09:05:24;10.70;;;6.80;;
61897;SDS011;47850;50.274;18.908;2022-08-19T09:08:02;13.30;;;7.40;;
61897;SDS011;47850;50.274;18.908;2022-08-19T09:10:39;13.40;;;7.00;;
61897;SDS011;47850;50.274;18.908;2022-08-19T09:16:17;16.50;;;6.90;;
61897;SDS011;47850;50.274;18.908;2022-08-19T09:18:49;12.50;;;6.90;;
61897;SDS011;47850;50.274;18.908;2022-08-19T09:21:20;19.70;;;7.60;;
61897;SDS011;47850;50.274;18.908;2022-08-19T09:23:51;16.60;;;7.50;;
61897;SDS011;47850;50.274;18.908;2022-08-19T09:26:19;13.20;;;7.00;;
61897;SDS011;47850;50.274;18.908;2022-08-19T09:28:49;17.80;;;7.20;;
61897;SDS011;47850;50.274;18.908;2022-08-19T09:31:19;14.60;;;7.90;;
61897;SDS011;47850;50.274;18.908;2022-08-19T09:33:49;13.10;;;7.00;;
61897;SDS011;47850;50.274;18.908;2022-08-19T09:36:17;19.10;;;7.70;;
61897;SDS011;47850;50.274;18.908;2022-08-19T09:38:45;11.80;;;6.70;;
61897;SDS011;47850;50.274;18.908;2022-08-19T09:41:13;12.20;;;6.80;;
61897;SDS011;47850;50.274;18.908;2022-08-19T09:43:49;14.90;;;7.20;;
61897;SDS011;47850;50.274;18.908;2022-08-19T09:46:22;11.00;;;7.40;;
61897;SDS011;47850;50.274;18.908;2022-08-19T09:48:51;15.40;;;7.50;;
61897;SDS011;47850;50.274;18.908;2022-08-19T09:51:21;13.10;;;6.90;;
61897;SDS011;47850;50.274;18.908;2022-08-19T09:53:50;15.90;;;7.50;;
61897;SDS011;47850;50.274;18.908;2022-08-19T09:56:20;18.00;;;7.50;;
61897;SDS011;47850;50.274;18.908;2022-08-19T09:58:48;14.10;;;7.00;;
61897;SDS011;47850;50.274;18.908;2022-08-19T10:01:16;17.50;;;7.50;;
61897;SDS011;47850;50.274;18.908;2022-08-19T10:03:47;15.60;;;7.70;;
61897;SDS011;47850;50.274;18.908;2022-08-19T10:06:15;13.70;;;7.30;;
61897;SDS011;47850;50.274;18.908;2022-08-19T10:08:43;11.60;;;7.10;;
61897;SDS011;47850;50.274;18.908;2022-08-19T10:11:10;14.20;;;7.40;;
61897;SDS011;47850;50.274;18.908;2022-08-19T10:13:37;17.00;;;6.90;;
61897;SDS011;47850;50.274;18.908;2022-08-19T10:16:05;20.40;;;7.50;;
61897;SDS011;47850;50.274;18.908;2022-08-19T10:18:35;18.30;;;7.10;;
61897;SDS011;47850;50.274;18.908;2022-08-19T10:21:05;15.60;;;7.30;;
61897;SDS011;47850;50.274;18.908;2022-08-19T10:23:35;11.50;;;6.50;;
61897;SDS011;47850;50.274;18.908;2022-08-19T10:26:04;21.60;;;7.20;;
61897;SDS011;47850;50.274;18.908;2022-08-19T10:28:33;12.90;;;7.00;;
61897;SDS011;47850;50.274;18.908;2022-08-19T10:31:04;11.10;;;6.20;;
61897;SDS011;47850;50.274;18.908;2022-08-19T10:33:35;14.60;;;7.10;;
61897;SDS011;47850;50.274;18.908;2022-08-19T10:36:06;23.70;;;11.90;;
61897;SDS011;47850;50.274;18.908;2022-08-19T10:38:37;16.80;;;6.00;;
61897;SDS011;47850;50.274;18.908;2022-08-19T10:41:11;18.20;;;6.20;;
61897;SDS011;47850;50.274;18.908;2022-08-19T10:43:43;10.20;;;5.20;;
61897;SDS011;47850;50.274;18.908;2022-08-19T10:46:12;10.00;;;5.50;;
61897;SDS011;47850;50.274;18.908;2022-08-19T10:48:41;10.10;;;5.30;;
61897;SDS011;47850;50.274;18.908;2022-08-19T10:51:09;18.80;;;5.70;;
61897;SDS011;47850;50.274;18.908;2022-08-19T10:53:55;13.20;;;5.30;;
61897;SDS011;47850;50.274;18.908;2022-08-19T10:56:22;13.50;;;5.90;;
61897;SDS011;47850;50.274;18.908;2022-08-19T10:59:08;15.20;;;5.60;;
61897;SDS011;47850;50.274;18.908;2022-08-19T11:01:36;12.70;;;5.60;;
61897;SDS011;47850;50.274;18.908;2022-08-19T11:04:03;11.60;;;5.80;;
61897;SDS011;47850;50.274;18.908;2022-08-19T11:06:31;13.40;;;6.00;;
61897;SDS011;47850;50.274;18.908;2022-08-19T11:08:58;14.50;;;5.90;;
61897;SDS011;47850;50.274;18.908;2022-08-19T11:11:26;11.00;;;5.30;;
61897;SDS011;47850;50.274;18.908;2022-08-19T11:13:54;17.80;;;5.80;;
61897;SDS011;47850;50.274;18.908;2022-08-19T11:16:22;17.30;;;6.40;;
61897;SDS011;47850;50.274;18.908;2022-08-19T11:18:52;9.10;;;5.50;;
61897;SDS011;47850;50.274;18.908;2022-08-19T11:21:26;18.60;;;5.90;;
61897;SDS011;47850;50.274;18.908;2022-08-19T11:23:56;12.10;;;5.80;;
61897;SDS011;47850;50.274;18.908;2022-08-19T11:26:28;12.90;;;5.40;;
61897;SDS011;47850;50.274;18.908;2022-08-19T11:28:57;24.10;;;5.60;;
61897;SDS011;47850;50.274;18.908;2022-08-19T11:31:29;16.10;;;5.90;;
61897;SDS011;47850;50.274;18.908;2022-08-19T11:33:57;18.10;;;5.20;;
61897;SDS011;47850;50.274;18.908;2022-08-19T11:36:25;12.50;;;5.20;;
61897;SDS011;47850;50.274;18.908;2022-08-19T11:38:53;13.20;;;5.00;;
61897;SDS011;47850;50.274;18.908;2022-08-19T11:41:21;14.30;;;4.90;;
61897;SDS011;47850;50.274;18.908;2022-08-19T11:43:50;17.60;;;5.70;;
61897;SDS011;47850;50.274;18.908;2022-08-19T11:46:19;13.00;;;5.30;;
61897;SDS011;47850;50.274;18.908;2022-08-19T11:48:47;14.10;;;4.50;;
61897;SDS011;47850;50.274;18.908;2022-08-19T11:51:17;13.50;;;5.00;;
61897;SDS011;47850;50.274;18.908;2022-08-19T11:53:45;20.70;;;4.70;;
61897;SDS011;47850;50.274;18.908;2022-08-19T11:56:12;16.30;;;4.80;;
61897;SDS011;47850;50.274;18.908;2022-08-19T11:58:39;14.50;;;5.20;;
61897;SDS011;47850;50.274;18.908;2022-08-19T12:01:10;17.00;;;5.50;;
61897;SDS011;47850;50.274;18.908;2022-08-19T12:03:38;17.40;;;5.40;;
61897;SDS011;47850;50.274;18.908;2022-08-19T12:06:07;12.10;;;4.70;;
61897;SDS011;47850;50.274;18.908;2022-08-19T12:08:35;12.60;;;4.60;;
61897;SDS011;47850;50.274;18.908;2022-08-19T12:11:02;13.70;;;5.30;;
61897;SDS011;47850;50.274;18.908;2022-08-19T12:13:29;14.90;;;5.20;;
61897;SDS011;47850;50.274;18.908;2022-08-19T12:15:56;12.10;;;5.40;;
61897;SDS011;47850;50.274;18.908;2022-08-19T12:18:24;12.30;;;4.60;;
61897;SDS011;47850;50.274;18.908;2022-08-19T12:20:52;11.30;;;4.70;;
61897;SDS011;47850;50.274;18.908;2022-08-19T12:25:47;16.70;;;5.10;;
61897;SDS011;47850;50.274;18.908;2022-08-19T12:28:21;18.40;;;5.70;;
61897;SDS011;47850;50.274;18.908;2022-08-19T12:30:50;16.70;;;5.00;;
61897;SDS011;47850;50.274;18.908;2022-08-19T12:33:18;14.90;;;5.10;;
61897;SDS011;47850;50.274;18.908;2022-08-19T12:35:45;11.70;;;5.50;;
61897;SDS011;47850;50.274;18.908;2022-08-19T12:38:13;10.40;;;4.70;;
61897;SDS011;47850;50.274;18.908;2022-08-19T12:40:40;14.30;;;5.00;;
61897;SDS011;47850;50.274;18.908;2022-08-19T12:43:08;14.70;;;4.80;;
61897;SDS011;47850;50.274;18.908;2022-08-19T12:45:34;12.00;;;4.70;;
61897;SDS011;47850;50.274;18.908;2022-08-19T12:48:01;15.70;;;5.00;;
61897;SDS011;47850;50.274;18.908;2022-08-19T12:50:29;13.90;;;5.10;;
61897;SDS011;47850;50.274;18.908;2022-08-19T12:52:57;11.70;;;4.70;;
61897;SDS011;47850;50.274;18.908;2022-08-19T12:55:24;11.10;;;4.50;;
61897;SDS011;47850;50.274;18.908;2022-08-19T12:57:51;14.80;;;4.50;;
61897;SDS011;47850;50.274;18.908;2022-08-19T13:00:18;11.40;;;4.90;;
61897;SDS011;47850;50.274;18.908;2022-08-19T13:02:47;16.00;;;5.00;;
61897;SDS011;47850;50.274;18.908;2022-08-19T13:05:20;13.90;;;5.00;;
61897;SDS011;47850;50.274;18.908;2022-08-19T13:07:49;11.80;;;4.40;;
61897;SDS011;47850;50.274;18.908;2022-08-19T13:10:18;14.60;;;4.50;;
61897;SDS011;47850;50.274;18.908;2022-08-19T13:12:47;12.10;;;4.20;;
61897;SDS011;47850;50.274;18.908;2022-08-19T13:15:16;16.40;;;4.50;;
61897;SDS011;47850;50.274;18.908;2022-08-19T13:17:47;15.90;;;4.60;;
61897;SDS011;47850;50.274;18.908;2022-08-19T13:20:15;17.10;;;4.40;;
61897;SDS011;47850;50.274;18.908;2022-08-19T13:22:45;14.50;;;4.70;;
61897;SDS011;47850;50.274;18.908;2022-08-19T13:25:13;15.00;;;4.60;;
61897;SDS011;47850;50.274;18.908;2022-08-19T13:27:42;12.00;;;4.20;;
61897;SDS011;47850;50.274;18.908;2022-08-19T13:30:10;12.40;;;4.40;;
61897;SDS011;47850;50.274;18.908;2022-08-19T13:32:57;15.60;;;4.70;;
61897;SDS011;47850;50.274;18.908;2022-08-19T13:35:47;13.50;;;4.80;;
61897;SDS011;47850;50.274;18.908;2022-08-19T13:38:23;15.10;;;4.60;;
61897;SDS011;47850;50.274;18.908;2022-08-19T13:40:51;15.60;;;4.50;;
61897;SDS011;47850;50.274;18.908;2022-08-19T13:43:19;13.50;;;4.20;;
61897;SDS011;47850;50.274;18.908;2022-08-19T13:45:51;11.30;;;3.80;;
61897;SDS011;47850;50.274;18.908;2022-08-19T13:48:22;17.90;;;4.30;;
61897;SDS011;47850;50.274;18.908;2022-08-19T13:50:49;13.60;;;4.00;;
61897;SDS011;47850;50.274;18.908;2022-08-19T13:53:16;15.00;;;4.20;;
61897;SDS011;47850;50.274;18.908;2022-08-19T13:55:44;16.20;;;4.60;;
61897;SDS011;47850;50.274;18.908;2022-08-19T13:58:11;20.80;;;4.30;;
61897;SDS011;47850;50.274;18.908;2022-08-19T14:00:42;19.70;;;4.80;;
61897;SDS011;47850;50.274;18.908;2022-08-19T14:03:10;20.70;;;4.60;;
61897;SDS011;47850;50.274;18.908;2022-08-19T14:05:37;20.60;;;4.40;;
61897;SDS011;47850;50.274;18.908;2022-08-19T14:08:04;11.80;;;4.40;;
61897;SDS011;47850;50.274;18.908;2022-08-19T14:10:31;19.10;;;4.30;;
61897;SDS011;47850;50.274;18.908;2022-08-19T14:13:00;19.20;;;4.60;;
61897;SDS011;47850;50.274;18.908;2022-08-19T14:15:28;14.80;;;4.50;;
61897;SDS011;47850;50.274;18.908;2022-08-19T14:17:56;14.70;;;4.10;;
61897;SDS011;47850;50.274;18.908;2022-08-19T14:20:23;17.40;;;5.30;;
61897;SDS011;47850;50.274;18.908;2022-08-19T14:22:49;13.60;;;4.90;;
61897;SDS011;47850;50.274;18.908;2022-08-19T14:25:18;12.70;;;4.20;;
61897;SDS011;47850;50.274;18.908;2022-08-19T14:27:46;10.80;;;3.90;;
61897;SDS011;47850;50.274;18.908;2022-08-19T14:30:15;13.00;;;3.90;;
61897;SDS011;47850;50.274;18.908;2022-08-19T14:32:45;19.70;;;4.40;;
61897;SDS011;47850;50.274;18.908;2022-08-19T14:35:13;13.40;;;4.60;;
61897;SDS011;47850;50.274;18.908;2022-08-19T14:37:42;15.70;;;4.30;;
61897;SDS011;47850;50.274;18.908;2022-08-19T14:40:10;14.60;;;4.70;;
61897;SDS011;47850;50.274;18.908;2022-08-19T14:42:38;14.80;;;4.60;;
61897;SDS011;47850;50.274;18.908;2022-08-19T14:45:04;13.30;;;4.80;;
61897;SDS011;47850;50.274;18.908;2022-08-19T14:47:32;15.60;;;4.30;;
61897;SDS011;47850;50.274;18.908;2022-08-19T14:49:59;11.20;;;4.70;;
61897;SDS011;47850;50.274;18.908;2022-08-19T14:52:26;20.10;;;4.60;;
61897;SDS011;47850;50.274;18.908;2022-08-19T14:54:53;21.00;;;4.90;;